Sentry Page Protection

Latest Glasgow METAR Decoded

What is a METAR?

Raw METAR: EGPF 261750Z 23015KT 9999 BKN025 BKN033 BKN047 15/12 Q1002
Time Published: Tue Oct 26 17:50:00 2021

Altimeter: 1002 hPa (29.59 inHg)
Clouds: Broken layer at 2500ft, Broken layer at 3300ft, Broken layer at 4700ft - Reported AGL
Visibility: 10km (6.2sm)
Dewpoint: 12°C (54°F)
Temperature: 15°C (59°F)
Wind: SW-230 at 15kt

Data pulled from AVWX API.

Customise webcam positions

Apply changes